Time;durP1;ratioP1;P1;durP2;ratioP2;P2;SDS_P1;SDS_P2;PMS_P1;PMS_P2;Temp;Humidity;BMP_temperature;BMP_pressure;BME280_temperature;BME280_humidity;BME280_pressure;Samples;Min_cycle;Max_cycle;Signal;HPM_P1;HPM_P2
2021/06/18 00:01:44;;;;;;;3.03;2.72;;;22.50;95.30;;;;;;5054717;28;20277;-91
2021/06/18 00:04:10;;;;;;;6.57;3.20;;;22.50;95.10;;;;;;5053691;28;20178;-92
2021/06/18 00:06:35;;;;;;;8.23;2.75;;;22.50;95.40;;;;;;5054891;28;20534;-89
2021/06/18 00:09:01;;;;;;;6.88;3.58;;;22.50;95.30;;;;;;5054627;28;20251;-91
2021/06/18 00:11:28;;;;;;;4.50;3.17;;;22.50;95.60;;;;;;5054646;28;20170;-90
2021/06/18 00:13:53;;;;;;;4.47;3.38;;;22.50;95.50;;;;;;5055603;28;20207;-91
2021/06/18 00:16:19;;;;;;;5.45;2.80;;;22.50;95.20;;;;;;5054892;28;20182;-90
2021/06/18 00:18:45;;;;;;;6.95;3.08;;;22.50;95.10;;;;;;5057760;28;20211;-90
2021/06/18 00:21:11;;;;;;;4.43;3.13;;;22.50;95.70;;;;;;5057763;28;20177;-91
2021/06/18 00:23:36;;;;;;;6.25;3.13;;;22.40;95.90;;;;;;5075566;28;20561;-91
2021/06/18 00:26:02;;;;;;;8.88;3.13;;;22.30;95.80;;;;;;5057746;28;20166;-89
2021/06/18 00:28:28;;;;;;;8.80;3.13;;;22.30;96.00;;;;;;5057739;28;20177;-91
2021/06/18 00:30:54;;;;;;;4.47;2.88;;;22.30;96.00;;;;;;5057749;28;20176;-90
2021/06/18 00:33:19;;;;;;;4.38;3.20;;;22.20;96.20;;;;;;5057675;28;20185;-92
2021/06/18 00:35:45;;;;;;;4.18;3.20;;;22.20;96.40;;;;;;5057451;28;20734;-91
2021/06/18 00:38:11;;;;;;;8.23;3.53;;;22.10;96.50;;;;;;5057531;28;20184;-91
2021/06/18 00:40:37;;;;;;;5.07;2.83;;;22.10;96.80;;;;;;5057403;28;20658;-90
2021/06/18 00:43:03;;;;;;;4.60;3.22;;;22.00;97.10;;;;;;5057838;28;20201;-91
2021/06/18 00:45:29;;;;;;;6.03;3.30;;;21.90;97.00;;;;;;5057429;28;20173;-89
2021/06/18 00:47:59;;;;;;;7.57;3.53;;;21.80;97.30;;;;;;5057421;28;20167;-91
2021/06/18 00:50:27;;;;;;;6.40;3.47;;;21.80;98.00;;;;;;5057274;28;20197;-91
2021/06/18 00:52:53;;;;;;;4.50;3.35;;;21.70;97.90;;;;;;5057082;28;20173;-92
2021/06/18 00:55:20;;;;;;;5.35;3.30;;;21.70;98.00;;;;;;5074784;28;20165;-91
2021/06/18 00:57:46;;;;;;;5.32;3.50;;;21.60;98.00;;;;;;5057061;28;20181;-90
2021/06/18 01:00:13;;;;;;;5.85;3.60;;;21.60;98.00;;;;;;5057085;28;20568;-91
2021/06/18 01:02:39;;;;;;;6.80;3.78;;;21.50;98.60;;;;;;5444546;23;20240;-88
2021/06/18 01:05:08;;;;;;;7.53;3.65;;;21.50;98.50;;;;;;5053508;28;20185;-89
2021/06/18 01:07:41;;;;;;;3.95;3.53;;;21.50;98.50;;;;;;5053375;28;20158;-88
2021/06/18 01:10:27;;;;;;;6.22;3.78;;;21.50;98.60;;;;;;5053015;28;20197;-88
2021/06/18 01:12:56;;;;;;;4.82;3.50;;;21.40;98.80;;;;;;5053258;28;20201;-88
2021/06/18 01:15:32;;;;;;;5.75;3.40;;;21.40;99.10;;;;;;5052181;28;20166;-91
2021/06/18 01:18:05;;;;;;;4.93;3.40;;;21.30;99.30;;;;;;5054016;28;20162;-88
2021/06/18 01:20:43;;;;;;;3.85;3.55;;;21.20;99.40;;;;;;5052631;28;20193;-91
2021/06/18 01:23:27;;;;;;;4.40;3.55;;;21.20;99.40;;;;;;5052906;28;20202;-90
2021/06/18 01:26:08;;;;;;;5.50;3.35;;;21.20;99.40;;;;;;5052758;28;20166;-91
2021/06/18 01:28:49;;;;;;;4.00;3.60;;;21.20;99.90;;;;;;5052705;28;20162;-88
2021/06/18 01:31:19;;;;;;;5.63;3.60;;;21.20;99.90;;;;;;5052859;28;20615;-87
2021/06/18 01:33:50;;;;;;;5.53;3.70;;;21.10;99.90;;;;;;5052822;28;20162;-91
2021/06/18 01:36:16;;;;;;;5.82;4.13;;;21.00;99.90;;;;;;5052878;28;20291;-89
2021/06/18 01:38:46;;;;;;;7.13;3.78;;;20.90;99.90;;;;;;5052569;28;20158;-87
2021/06/18 01:41:18;;;;;;;7.95;4.53;;;21.00;99.90;;;;;;5052721;28;20166;-88
2021/06/18 01:43:47;;;;;;;4.43;3.53;;;21.00;99.90;;;;;;5052866;28;20169;-88
2021/06/18 01:46:16;;;;;;;5.20;4.10;;;21.00;99.90;;;;;;5052458;28;20253;-90
2021/06/18 01:48:46;;;;;;;5.45;4.30;;;21.00;99.90;;;;;;5052385;28;20344;-88
2021/06/18 01:51:12;;;;;;;5.88;4.18;;;20.90;99.90;;;;;;5052343;28;20232;-87
2021/06/18 01:53:43;;;;;;;10.63;4.07;;;20.90;99.90;;;;;;5052627;28;20212;-90
2021/06/18 01:56:14;;;;;;;5.75;4.30;;;20.80;99.90;;;;;;5069264;28;20193;-90
2021/06/18 01:58:42;;;;;;;7.55;4.00;;;20.70;99.90;;;;;;5052950;28;20178;-90
2021/06/18 02:01:09;;;;;;;5.50;3.97;;;20.60;99.90;;;;;;5052537;28;20244;-88
2021/06/18 02:03:36;;;;;;;6.63;4.10;;;20.60;99.90;;;;;;5052453;28;20601;-88
2021/06/18 02:06:04;;;;;;;4.20;3.80;;;20.60;99.90;;;;;;5052641;28;20174;-90
2021/06/18 02:08:30;;;;;;;5.68;4.15;;;20.60;99.90;;;;;;5053422;28;20584;-89
2021/06/18 02:10:59;;;;;;;6.82;4.28;;;20.50;99.90;;;;;;5052328;28;20205;-89
2021/06/18 02:13:28;;;;;;;6.07;4.03;;;20.50;99.90;;;;;;5052366;28;20181;-92
2021/06/18 02:15:55;;;;;;;6.10;4.22;;;20.50;99.90;;;;;;5052422;28;20177;-89
2021/06/18 02:18:23;;;;;;;5.97;3.90;;;20.50;99.90;;;;;;5052338;28;20619;-90
2021/06/18 02:20:51;;;;;;;4.32;3.72;;;20.50;99.90;;;;;;5052060;28;20286;-88
2021/06/18 02:23:17;;;;;;;6.78;4.57;;;20.60;99.90;;;;;;5052200;28;20573;-87
2021/06/18 02:25:44;;;;;;;5.47;4.57;;;20.60;99.90;;;;;;5052346;28;20190;-89
2021/06/18 02:28:11;;;;;;;7.93;4.50;;;20.50;99.90;;;;;;5056030;28;20165;-87
2021/06/18 02:30:37;;;;;;;8.63;4.18;;;20.50;99.90;;;;;;5056004;28;20202;-88
2021/06/18 02:33:10;;;;;;;5.85;4.35;;;20.40;99.90;;;;;;5056224;28;20621;-88
2021/06/18 02:35:36;;;;;;;6.38;4.38;;;20.50;99.90;;;;;;5056032;28;20185;-87
2021/06/18 02:38:03;;;;;;;6.80;4.63;;;20.50;99.90;;;;;;5056255;28;20174;-88
2021/06/18 02:40:28;;;;;;;4.95;4.05;;;20.40;99.90;;;;;;5055730;28;20202;-89
2021/06/18 02:42:54;;;;;;;4.80;3.95;;;20.50;99.90;;;;;;5055959;28;20205;-86
2021/06/18 02:45:20;;;;;;;6.60;4.43;;;20.50;99.90;;;;;;5055785;28;20170;-87
2021/06/18 02:48:07;;;;;;;5.50;4.15;;;20.50;99.90;;;;;;5056014;28;20181;-91
2021/06/18 02:50:57;;;;;;;4.38;3.97;;;20.60;99.90;;;;;;5055559;28;20198;-89
2021/06/18 02:53:40;;;;;;;4.57;4.18;;;20.50;99.90;;;;;;5055746;28;20178;-88
2021/06/18 02:56:17;;;;;;;6.75;4.50;;;20.50;99.90;;;;;;5055710;28;20174;-89
2021/06/18 02:59:02;;;;;;;4.55;4.13;;;20.50;99.90;;;;;;5055350;28;20166;-90
2021/06/18 03:01:32;;;;;;;4.95;4.00;;;20.50;99.90;;;;;;5055541;28;20205;-90
2021/06/18 03:04:00;;;;;;;6.75;4.20;;;20.40;99.90;;;;;;5055489;28;20227;-88
2021/06/18 03:06:29;;;;;;;10.70;4.57;;;20.30;99.90;;;;;;5055244;28;20234;-87
2021/06/18 03:09:02;;;;;;;6.47;4.28;;;20.30;99.90;;;;;;5055218;28;20567;-90
2021/06/18 03:11:31;;;;;;;4.90;4.00;;;20.30;99.90;;;;;;5056646;28;20162;-90
2021/06/18 03:14:00;;;;;;;10.00;4.68;;;20.20;99.90;;;;;;5055394;28;20188;-89
2021/06/18 03:16:28;;;;;;;6.80;4.55;;;20.20;99.90;;;;;;5055257;28;20178;-90
2021/06/18 03:18:57;;;;;;;4.53;4.00;;;20.20;99.90;;;;;;5054980;28;20214;-90
2021/06/18 03:21:24;;;;;;;5.53;4.57;;;20.20;99.90;;;;;;5055210;28;20610;-88
2021/06/18 03:23:52;;;;;;;5.85;4.35;;;20.20;99.90;;;;;;5055105;28;20162;-87
2021/06/18 03:26:19;;;;;;;6.85;4.72;;;20.10;99.90;;;;;;5055131;28;20168;-88
2021/06/18 03:28:46;;;;;;;6.43;4.80;;;20.10;99.90;;;;;;5054829;28;20177;-88
2021/06/18 03:31:16;;;;;;;10.23;4.57;;;20.10;99.90;;;;;;5054974;28;20162;-88
2021/06/18 03:33:43;;;;;;;10.35;4.97;;;20.10;99.90;;;;;;5056009;28;20521;-88
2021/06/18 03:36:09;;;;;;;6.93;4.93;;;20.10;99.90;;;;;;5056272;28;20608;-88
2021/06/18 03:38:37;;;;;;;10.00;4.60;;;20.00;99.90;;;;;;5053384;28;20166;-88
2021/06/18 03:41:03;;;;;;;9.88;4.60;;;20.00;99.90;;;;;;5054710;28;20185;-88
2021/06/18 03:43:29;;;;;;;7.07;4.45;;;20.00;99.90;;;;;;5054641;28;20620;-87
2021/06/18 03:46:00;;;;;;;5.65;4.80;;;20.00;99.90;;;;;;5055926;28;20233;-90
2021/06/18 03:48:28;;;;;;;5.70;4.93;;;20.00;99.90;;;;;;5054612;28;20201;-91
2021/06/18 03:50:54;;;;;;;7.43;5.28;;;20.00;99.90;;;;;;5054814;28;20273;-89
2021/06/18 03:53:20;;;;;;;7.50;4.63;;;20.00;99.90;;;;;;5054542;28;20197;-87
2021/06/18 03:55:48;;;;;;;8.40;4.70;;;20.00;99.90;;;;;;5054635;28;20170;-91
2021/06/18 03:58:17;;;;;;;7.88;5.05;;;20.00;99.90;;;;;;5054459;28;20180;-88
2021/06/18 04:00:44;;;;;;;6.88;4.88;;;20.00;99.90;;;;;;5054156;28;20201;-89
2021/06/18 04:03:12;;;;;;;6.90;5.30;;;20.00;99.90;;;;;;5054306;28;20312;-89
2021/06/18 04:05:39;;;;;;;5.90;4.82;;;20.10;99.90;;;;;;5054308;28;20193;-88
2021/06/18 04:08:06;;;;;;;9.32;5.00;;;20.10;99.90;;;;;;5054338;28;20212;-88
2021/06/18 04:10:32;;;;;;;6.47;4.75;;;20.10;99.90;;;;;;5053924;28;20201;-87
2021/06/18 04:12:59;;;;;;;7.63;4.97;;;20.20;99.90;;;;;;5054182;28;20178;-87
2021/06/18 04:15:25;;;;;;;6.90;4.88;;;20.20;99.90;;;;;;5054096;28;20203;-91
2021/06/18 04:17:52;;;;;;;5.63;5.03;;;20.20;99.90;;;;;;5053930;28;20174;-87
2021/06/18 04:20:20;;;;;;;10.15;5.70;;;20.30;99.90;;;;;;5053711;28;20547;-89
2021/06/18 04:22:48;;;;;;;10.45;5.57;;;20.30;99.90;;;;;;5053859;28;20205;-88
2021/06/18 04:25:14;;;;;;;8.40;5.07;;;20.40;99.90;;;;;;5055060;28;20188;-85
2021/06/18 04:27:40;;;;;;;7.10;4.78;;;20.30;99.90;;;;;;5053787;28;20574;-87
2021/06/18 04:30:08;;;;;;;5.03;4.53;;;20.40;99.90;;;;;;5053676;28;20267;-88
2021/06/18 04:32:34;;;;;;;6.15;5.65;;;20.50;99.90;;;;;;5053729;28;20188;-86
2021/06/18 04:34:59;;;;;;;7.40;5.45;;;20.60;99.90;;;;;;5053780;28;20178;-89
2021/06/18 04:37:25;;;;;;;8.10;5.80;;;20.60;99.90;;;;;;5053695;28;20257;-90
2021/06/18 04:39:51;;;;;;;10.65;6.13;;;20.80;99.90;;;;;;5053606;28;20197;-90
2021/06/18 04:42:16;;;;;;;6.82;5.88;;;21.00;99.90;;;;;;5054649;28;20194;-89
2021/06/18 04:44:42;;;;;;;8.98;5.75;;;21.10;99.90;;;;;;5054849;28;20158;-85
2021/06/18 04:47:08;;;;;;;10.48;6.00;;;21.30;99.90;;;;;;5053497;28;20209;-88
2021/06/18 04:49:34;;;;;;;7.75;6.00;;;21.50;99.90;;;;;;5053054;28;20228;-89
2021/06/18 04:52:00;;;;;;;7.88;5.40;;;21.60;99.90;;;;;;5053464;28;20257;-87
2021/06/18 04:54:26;;;;;;;9.65;5.63;;;21.70;99.90;;;;;;5053131;28;20223;-90
2021/06/18 04:56:52;;;;;;;6.20;5.60;;;21.80;99.90;;;;;;5053220;28;20204;-90
2021/06/18 04:59:19;;;;;;;7.05;5.50;;;22.00;99.90;;;;;;5052880;28;20659;-90
2021/06/18 05:01:46;;;;;;;7.60;5.43;;;22.10;99.90;;;;;;5054087;28;20206;-87
2021/06/18 05:04:17;;;;;;;6.10;5.43;;;22.10;99.90;;;;;;5074166;28;20168;-89
2021/06/18 05:06:42;;;;;;;7.85;5.57;;;22.10;99.90;;;;;;5074145;28;20158;-88
2021/06/18 05:09:08;;;;;;;9.63;6.05;;;22.20;99.90;;;;;;5074133;28;20251;-87
2021/06/18 05:11:34;;;;;;;7.70;5.72;;;22.20;99.90;;;;;;5056462;28;20177;-89
2021/06/18 05:14:00;;;;;;;9.57;6.32;;;22.30;99.90;;;;;;5056319;28;20175;-87
2021/06/18 05:16:26;;;;;;;6.05;5.20;;;22.40;99.90;;;;;;5056465;28;20622;-90
2021/06/18 05:18:52;;;;;;;12.45;6.07;;;22.40;99.90;;;;;;5056114;28;20197;-89
2021/06/18 05:21:18;;;;;;;5.90;5.28;;;22.50;99.90;;;;;;5073890;28;20219;-89
2021/06/18 05:23:44;;;;;;;6.57;5.65;;;22.50;99.90;;;;;;5056341;28;20161;-89
2021/06/18 05:26:10;;;;;;;6.00;5.20;;;22.50;99.90;;;;;;5056523;28;20643;-87
2021/06/18 05:28:35;;;;;;;7.20;5.53;;;22.60;99.90;;;;;;5078483;28;20173;-89
2021/06/18 05:31:02;;;;;;;7.93;5.75;;;22.70;99.90;;;;;;5061360;28;20232;-87
2021/06/18 05:33:29;;;;;;;6.22;5.63;;;22.70;99.90;;;;;;5061168;28;20168;-87
2021/06/18 05:35:54;;;;;;;5.47;4.97;;;22.80;99.90;;;;;;5061662;28;20201;-89
2021/06/18 05:38:20;;;;;;;9.02;5.20;;;22.80;99.90;;;;;;5062236;28;20619;-88
2021/06/18 05:40:47;;;;;;;7.68;5.18;;;22.90;99.90;;;;;;5079823;28;20610;-88
2021/06/18 05:43:13;;;;;;;6.88;5.00;;;22.90;99.90;;;;;;5061923;28;20193;-88
2021/06/18 05:45:39;;;;;;;5.95;5.00;;;22.90;99.90;;;;;;5061696;28;20279;-87
2021/06/18 05:48:06;;;;;;;6.25;5.32;;;22.90;99.90;;;;;;5062470;28;20172;-86
2021/06/18 05:50:32;;;;;;;5.30;4.80;;;23.00;99.90;;;;;;5062933;28;20213;-89
2021/06/18 05:52:58;;;;;;;7.10;5.30;;;23.00;99.90;;;;;;5091152;28;20164;-89
2021/06/18 05:55:24;;;;;;;6.80;4.82;;;23.00;99.90;;;;;;5062284;28;20169;-88
2021/06/18 05:57:52;;;;;;;5.90;4.78;;;23.00;99.90;;;;;;5068950;28;20691;-91
2021/06/18 06:00:19;;;;;;;7.38;5.10;;;23.00;99.90;;;;;;5077182;28;20725;-92
2021/06/18 06:02:45;;;;;;;9.25;5.28;;;23.10;99.90;;;;;;5063580;28;20316;-89
2021/06/18 06:05:12;;;;;;;5.22;4.60;;;23.10;99.90;;;;;;5075412;28;20255;-89
2021/06/18 06:07:43;;;;;;;5.28;4.78;;;23.10;99.90;;;;;;5102676;28;20159;-88
2021/06/18 06:10:09;;;;;;;6.43;4.63;;;23.20;99.90;;;;;;5084459;28;20204;-86
2021/06/18 06:12:35;;;;;;;5.03;4.00;;;23.30;99.90;;;;;;5083055;28;20513;-90
2021/06/18 06:15:03;;;;;;;4.70;4.20;;;23.40;99.90;;;;;;5081409;28;20183;-90
2021/06/18 06:17:29;;;;;;;6.47;4.38;;;23.40;99.50;;;;;;5081701;28;20630;-89
2021/06/18 06:19:55;;;;;;;5.68;4.57;;;23.50;99.30;;;;;;5097345;28;20211;-90
2021/06/18 06:22:20;;;;;;;4.93;4.40;;;23.50;99.40;;;;;;5081904;28;20204;-89
2021/06/18 06:24:47;;;;;;;8.90;5.03;;;23.60;99.90;;;;;;5070668;28;20184;-90
2021/06/18 06:27:12;;;;;;;7.55;4.80;;;23.60;99.90;;;;;;5063544;28;20565;-90
2021/06/18 06:29:38;;;;;;;7.35;4.20;;;23.60;99.80;;;;;;5066919;28;20200;-90
2021/06/18 06:32:04;;;;;;;6.38;4.63;;;23.70;99.10;;;;;;5067164;28;20173;-90
2021/06/18 06:34:31;;;;;;;5.70;4.30;;;23.80;99.00;;;;;;5062941;28;20223;-93
2021/06/18 06:36:57;;;;;;;8.55;4.55;;;23.90;99.30;;;;;;5066719;28;20177;-86
2021/06/18 06:39:24;;;;;;;7.35;4.65;;;24.00;99.50;;;;;;5068357;28;20201;-90
2021/06/18 06:41:50;;;;;;;7.00;4.28;;;24.10;99.40;;;;;;5069172;28;20185;-88
2021/06/18 06:44:16;;;;;;;6.55;3.90;;;24.30;98.90;;;;;;5064476;28;20673;-89
2021/06/18 06:46:42;;;;;;;6.15;4.18;;;24.40;98.50;;;;;;5061338;28;20161;-88
2021/06/18 06:49:08;;;;;;;6.25;4.50;;;24.60;98.80;;;;;;5060094;28;20680;-88
2021/06/18 06:51:34;;;;;;;6.53;4.47;;;24.80;98.10;;;;;;5059139;28;20645;-90
2021/06/18 06:53:59;;;;;;;7.28;4.22;;;25.00;97.90;;;;;;5058823;28;20176;-90
2021/06/18 06:56:25;;;;;;;8.80;4.60;;;25.30;98.00;;;;;;5059231;28;20165;-90
2021/06/18 06:58:54;;;;;;;5.35;4.13;;;25.40;97.90;;;;;;5058786;28;20197;-90
2021/06/18 07:01:19;;;;;;;9.95;4.25;;;25.60;97.00;;;;;;5058912;28;20178;-88
2021/06/18 07:03:45;;;;;;;9.07;4.60;;;25.70;96.60;;;;;;5058585;28;20596;-90
2021/06/18 07:06:11;;;;;;;11.82;5.13;;;25.80;96.80;;;;;;5058437;28;20181;-88
2021/06/18 07:08:37;;;;;;;8.25;4.60;;;25.90;97.30;;;;;;5075885;28;20211;-88
2021/06/18 07:11:03;;;;;;;7.68;4.38;;;26.00;96.60;;;;;;5058499;28;20173;-89
2021/06/18 07:13:29;;;;;;;6.40;4.28;;;26.20;96.80;;;;;;5058916;28;20517;-89
2021/06/18 07:15:57;;;;;;;7.05;4.38;;;26.20;96.40;;;;;;5058681;28;20242;-91
2021/06/18 07:18:24;;;;;;;5.18;4.63;;;26.40;96.20;;;;;;5058626;28;20181;-88
2021/06/18 07:20:51;;;;;;;6.95;4.10;;;26.50;96.20;;;;;;5058462;28;20203;-90
2021/06/18 07:23:17;;;;;;;6.85;4.57;;;26.60;95.80;;;;;;5058525;28;20243;-91
2021/06/18 07:25:44;;;;;;;5.70;4.03;;;26.70;96.00;;;;;;5058498;28;20256;-89
2021/06/18 07:28:11;;;;;;;6.50;4.28;;;26.90;95.60;;;;;;5058446;28;20252;-90
2021/06/18 07:30:38;;;;;;;6.70;4.60;;;27.00;95.10;;;;;;5076044;28;20201;-89
2021/06/18 07:33:05;;;;;;;11.82;4.78;;;27.10;94.90;;;;;;5058405;28;20177;-90
2021/06/18 07:35:31;;;;;;;6.38;4.25;;;27.30;94.00;;;;;;5058569;28;20224;-88
2021/06/18 07:37:57;;;;;;;8.00;4.28;;;27.30;93.30;;;;;;5058435;28;20180;-89
2021/06/18 07:40:24;;;;;;;9.05;4.35;;;27.40;93.40;;;;;;5058193;28;20250;-88
2021/06/18 07:42:50;;;;;;;8.43;4.47;;;27.50;93.80;;;;;;5058144;28;20212;-87
2021/06/18 07:45:16;;;;;;;7.40;4.13;;;27.60;94.90;;;;;;5058394;28;20197;-90
2021/06/18 07:47:43;;;;;;;6.47;4.38;;;27.70;94.60;;;;;;5058410;28;20204;-90
2021/06/18 07:50:11;;;;;;;4.93;3.65;;;27.70;94.00;;;;;;5057900;28;20204;-88
2021/06/18 07:52:37;;;;;;;7.90;4.88;;;27.90;93.90;;;;;;5058002;28;20727;-91
2021/06/18 07:55:07;;;;;;;8.68;4.30;;;27.90;93.90;;;;;;5076270;28;20169;-89
2021/06/18 07:57:33;;;;;;;4.65;4.15;;;28.00;93.60;;;;;;5057894;28;20310;-91
2021/06/18 07:59:59;;;;;;;9.73;4.95;;;28.20;94.50;;;;;;5057934;28;20288;-89
2021/06/18 08:02:27;;;;;;;7.68;4.65;;;28.20;94.60;;;;;;5069295;28;20216;-89
2021/06/18 08:04:57;;;;;;;7.38;4.55;;;28.40;94.60;;;;;;5074691;28;20173;-90
2021/06/18 08:07:23;;;;;;;7.72;4.63;;;28.40;94.40;;;;;;5074518;28;20188;-89
2021/06/18 08:09:50;;;;;;;8.82;5.00;;;28.50;94.70;;;;;;5073650;28;20197;-91
2021/06/18 08:12:16;;;;;;;8.90;4.90;;;28.60;94.00;;;;;;5074111;28;20162;-89
2021/06/18 08:14:42;;;;;;;8.75;4.43;;;28.70;94.30;;;;;;5073233;28;20181;-88
2021/06/18 08:17:08;;;;;;;7.25;4.50;;;28.90;93.40;;;;;;5074237;28;20231;-90
2021/06/18 08:19:33;;;;;;;7.35;4.88;;;28.90;93.20;;;;;;5073829;28;20565;-87
2021/06/18 08:21:59;;;;;;;13.88;4.93;;;28.90;91.60;;;;;;5073295;28;20208;-86
2021/06/18 08:24:26;;;;;;;11.70;5.07;;;28.90;92.50;;;;;;5073007;28;20166;-86
2021/06/18 08:26:52;;;;;;;7.85;5.18;;;29.00;91.30;;;;;;5073435;28;20173;-86
2021/06/18 08:29:17;;;;;;;8.52;4.80;;;29.20;91.90;;;;;;5072977;28;20576;-85
2021/06/18 08:31:43;;;;;;;14.77;5.32;;;29.20;92.20;;;;;;5073276;28;20173;-86
2021/06/18 08:34:09;;;;;;;10.50;5.40;;;29.40;91.20;;;;;;5073374;28;20545;-86
2021/06/18 08:36:35;;;;;;;7.38;5.22;;;29.40;90.20;;;;;;5072105;28;20177;-86
2021/06/18 08:39:03;;;;;;;11.93;5.55;;;29.50;90.30;;;;;;5073035;28;20269;-86
2021/06/18 08:41:29;;;;;;;9.82;5.30;;;29.50;88.70;;;;;;5073213;28;20539;-86
2021/06/18 08:43:56;;;;;;;9.02;5.72;;;29.60;89.40;;;;;;5073211;28;20172;-86
2021/06/18 08:46:22;;;;;;;9.05;5.72;;;29.70;89.10;;;;;;5073093;28;20165;-86
2021/06/18 08:48:48;;;;;;;9.88;5.70;;;29.80;90.70;;;;;;5072924;28;20332;-88
2021/06/18 08:51:15;;;;;;;14.35;5.82;;;29.90;90.70;;;;;;5072884;28;20165;-86
2021/06/18 08:53:42;;;;;;;11.27;5.28;;;30.00;88.50;;;;;;5072658;28;20176;-85
2021/06/18 08:56:08;;;;;;;9.68;5.15;;;30.00;88.20;;;;;;5073073;28;20513;-86
2021/06/18 08:58:35;;;;;;;9.77;5.38;;;30.00;90.00;;;;;;5072661;28;20180;-87
2021/06/18 09:01:02;;;;;;;16.13;6.13;;;30.00;89.00;;;;;;5072654;28;20169;-86
2021/06/18 09:03:48;;;;;;;12.40;5.50;;;30.00;88.20;;;;;;5072165;28;20657;-86
2021/06/18 09:06:37;;;;;;;10.25;5.63;;;30.00;90.20;;;;;;5072416;28;20259;-86
2021/06/18 09:09:14;;;;;;;9.68;6.03;;;30.20;89.40;;;;;;5072627;28;20196;-86
2021/06/18 09:11:49;;;;;;;16.80;5.95;;;30.20;90.40;;;;;;5072533;28;20174;-86
2021/06/18 09:14:24;;;;;;;14.95;5.18;;;30.20;87.70;;;;;;5072242;28;20641;-86
2021/06/18 09:17:27;;;;;;;7.57;5.13;;;30.40;87.10;;;;;;5072284;28;20184;-85
2021/06/18 09:19:54;;;;;;;10.13;5.28;;;30.30;86.70;;;;;;5072185;28;20224;-86
2021/06/18 09:22:38;;;;;;;5.22;4.63;;;30.40;87.50;;;;;;5071935;28;20208;-85
2021/06/18 09:25:11;;;;;;;8.20;5.05;;;30.60;87.10;;;;;;5072080;28;20741;-86
2021/06/18 09:27:41;;;;;;;9.25;5.10;;;30.50;83.10;;;;;;5069872;28;20181;-86
2021/06/18 09:30:33;;;;;;;5.90;4.60;;;30.70;82.40;;;;;;5051940;28;20197;-87
2021/06/18 09:33:05;;;;;;;10.60;4.97;;;30.70;84.40;;;;;;5051267;28;20166;-86
2021/06/18 09:35:33;;;;;;;6.68;4.78;;;30.80;84.60;;;;;;5051160;28;20177;-85
2021/06/18 09:38:05;;;;;;;8.50;4.75;;;30.90;84.10;;;;;;5051789;28;20257;-86
2021/06/18 09:40:31;;;;;;;15.25;5.13;;;31.00;82.00;;;;;;5051783;28;20204;-85
2021/06/18 09:43:01;;;;;;;8.23;4.70;;;31.10;83.40;;;;;;5050948;28;20608;-85
2021/06/18 09:45:32;;;;;;;6.30;4.65;;;30.90;81.00;;;;;;5051463;28;20200;-86
2021/06/18 09:48:16;;;;;;;11.35;4.85;;;31.10;79.20;;;;;;5051962;28;20256;-86
2021/06/18 09:50:47;;;;;;;14.68;5.22;;;31.30;81.70;;;;;;5051880;28;20566;-86
2021/06/18 09:53:24;;;;;;;9.57;4.47;;;31.20;77.90;;;;;;5051919;28;20169;-85
2021/06/18 09:56:04;;;;;;;7.75;4.32;;;31.30;80.90;;;;;;5051864;28;20200;-85
2021/06/18 09:58:32;;;;;;;13.82;4.50;;;31.40;80.70;;;;;;5051757;28;20173;-86
2021/06/18 10:01:25;;;;;;;4.85;3.83;;;31.60;82.60;;;;;;5051681;28;20227;-86
2021/06/18 10:04:03;;;;;;;8.27;4.20;;;31.70;82.50;;;;;;5051480;28;20725;-86
2021/06/18 10:06:31;;;;;;;4.30;3.90;;;31.80;81.20;;;;;;5052762;28;20674;-87
2021/06/18 10:08:58;;;;;;;6.82;4.22;;;31.80;79.70;;;;;;5050606;28;20697;-87
2021/06/18 10:11:24;;;;;;;5.45;4.03;;;31.90;80.00;;;;;;5051583;28;20705;-86
2021/06/18 10:13:53;;;;;;;5.00;4.10;;;32.00;76.20;;;;;;5051691;28;20177;-86
2021/06/18 10:16:26;;;;;;;4.72;3.58;;;32.10;74.80;;;;;;5051657;28;20177;-86
2021/06/18 10:18:56;;;;;;;8.23;3.60;;;32.00;72.60;;;;;;5051474;28;20272;-86
2021/06/18 10:21:24;;;;;;;6.00;3.38;;;32.00;76.60;;;;;;5051671;28;20173;-86
2021/06/18 10:23:54;;;;;;;6.20;3.58;;;32.10;74.50;;;;;;5051657;28;20538;-86
2021/06/18 10:26:21;;;;;;;6.15;3.90;;;32.30;72.50;;;;;;5051687;28;20165;-86
2021/06/18 10:28:59;;;;;;;4.35;3.47;;;32.40;73.10;;;;;;5051292;28;20676;-85
2021/06/18 10:31:28;;;;;;;9.15;3.63;;;32.40;70.60;;;;;;5051478;28;20165;-86
2021/06/18 10:34:16;;;;;;;4.70;3.85;;;32.50;73.70;;;;;;5051549;28;20166;-86
2021/06/18 10:36:43;;;;;;;7.15;3.80;;;32.60;73.70;;;;;;5051633;28;20179;-86
2021/06/18 10:39:19;;;;;;;4.68;3.63;;;32.70;74.30;;;;;;5051410;28;20304;-87
2021/06/18 10:41:53;;;;;;;6.35;3.55;;;32.70;73.50;;;;;;5051444;28;20203;-86
2021/06/18 10:44:38;;;;;;;4.30;3.90;;;32.70;74.30;;;;;;5051470;28;20170;-86
2021/06/18 10:47:25;;;;;;;4.18;3.78;;;32.70;74.20;;;;;;5051930;28;20173;-86
2021/06/18 10:49:56;;;;;;;4.03;3.45;;;32.70;73.60;;;;;;4995640;28;20207;-86
2021/06/18 10:52:23;;;;;;;5.28;3.78;;;32.80;72.00;;;;;;5060826;28;20181;-86
2021/06/18 10:54:53;;;;;;;5.03;3.67;;;32.90;72.60;;;;;;5074625;28;20184;-86
2021/06/18 10:57:24;;;;;;;4.60;3.22;;;32.90;72.30;;;;;;5070630;28;20173;-86
2021/06/18 10:59:58;;;;;;;4.30;3.30;;;33.00;73.30;;;;;;5074575;28;20199;-87
2021/06/18 11:02:25;;;;;;;8.70;3.40;;;33.10;70.60;;;;;;5074779;28;20246;-86
2021/06/18 11:04:55;;;;;;;6.28;3.83;;;33.10;69.80;;;;;;5075004;28;20180;-86
2021/06/18 11:07:24;;;;;;;7.22;3.80;;;33.20;70.90;;;;;;5073716;28;20172;-87
2021/06/18 11:09:52;;;;;;;3.83;3.35;;;33.20;68.60;;;;;;5073499;28;20193;-86
2021/06/18 11:12:38;;;;;;;8.32;3.53;;;33.30;67.70;;;;;;5074298;28;20184;-87
2021/06/18 11:15:27;;;;;;;4.90;3.65;;;33.20;68.50;;;;;;5073815;28;20219;-87
2021/06/18 11:18:16;;;;;;;5.22;3.28;;;33.20;70.60;;;;;;5062553;28;20283;-87
2021/06/18 11:20:41;;;;;;;5.50;3.42;;;33.20;71.90;;;;;;5053153;28;20247;-88
2021/06/18 11:23:13;;;;;;;5.10;3.17;;;33.40;70.60;;;;;;5053168;28;20217;-86
2021/06/18 11:28:20;;;;;;;6.05;3.30;;;33.40;71.70;;;;;;5055992;28;20621;-86
2021/06/18 11:31:07;;;;;;;7.03;3.83;;;33.50;69.80;;;;;;5054270;28;20197;-86
2021/06/18 11:33:44;;;;;;;5.90;3.67;;;33.30;64.90;;;;;;5054368;28;20177;-87
2021/06/18 11:36:22;;;;;;;5.97;3.10;;;33.40;67.70;;;;;;5053960;28;20251;-87
2021/06/18 11:39:09;;;;;;;7.47;3.55;;;33.40;70.30;;;;;;5054162;28;20645;-86
2021/06/18 11:41:40;;;;;;;7.93;3.58;;;33.50;68.90;;;;;;5054154;28;20177;-86
2021/06/18 11:44:07;;;;;;;7.07;3.17;;;33.50;66.50;;;;;;5054128;28;20166;-86
2021/06/18 11:46:35;;;;;;;4.78;3.05;;;33.60;68.80;;;;;;5053833;28;20177;-87
2021/06/18 11:49:19;;;;;;;5.63;3.35;;;33.60;68.10;;;;;;5053775;28;20196;-87
2021/06/18 11:51:46;;;;;;;8.35;3.55;;;33.70;67.50;;;;;;5054090;28;20178;-86
2021/06/18 11:54:23;;;;;;;6.20;3.25;;;33.70;66.60;;;;;;5054081;28;20182;-86
2021/06/18 11:56:57;;;;;;;5.32;3.20;;;33.70;64.70;;;;;;5053913;28;20173;-86
2021/06/18 11:59:26;;;;;;;6.43;3.45;;;33.70;65.90;;;;;;5053090;28;20208;-87
2021/06/18 12:01:52;;;;;;;4.70;3.40;;;33.80;67.20;;;;;;5055529;28;20582;-87
2021/06/18 12:04:18;;;;;;;7.80;3.85;;;33.80;67.60;;;;;;5057192;28;20537;-86
2021/06/18 12:06:43;;;;;;;8.70;3.95;;;33.80;67.90;;;;;;5057359;28;20180;-87
2021/06/18 12:09:16;;;;;;;6.28;3.75;;;33.80;69.30;;;;;;5056847;28;20222;-86
2021/06/18 12:11:45;;;;;;;8.02;3.67;;;33.80;67.90;;;;;;5057063;28;20173;-87
2021/06/18 12:14:13;;;;;;;4.32;3.70;;;33.90;69.40;;;;;;5056875;28;20597;-86
2021/06/18 12:16:41;;;;;;;4.97;3.53;;;33.90;70.80;;;;;;5061190;28;20180;-86
2021/06/18 12:19:27;;;;;;;4.95;3.75;;;34.00;68.70;;;;;;5073420;28;20269;-86
2021/06/18 12:22:08;;;;;;;5.95;3.63;;;34.10;68.20;;;;;;5073303;28;20287;-87
2021/06/18 12:24:41;;;;;;;5.15;3.35;;;34.10;66.50;;;;;;5073573;28;20536;-86
2021/06/18 12:27:12;;;;;;;9.25;3.40;;;34.10;65.60;;;;;;5073420;28;20602;-87
2021/06/18 12:29:44;;;;;;;8.90;3.67;;;34.10;65.00;;;;;;5073281;28;20223;-86
2021/06/18 12:32:13;;;;;;;5.30;3.15;;;34.10;64.50;;;;;;5073325;28;20596;-87
2021/06/18 12:34:48;;;;;;;3.53;3.20;;;34.00;67.50;;;;;;5075958;28;20172;-87
2021/06/18 12:37:14;;;;;;;4.85;3.42;;;34.10;65.80;;;;;;5076366;28;20175;-87
2021/06/18 12:40:11;;;;;;;4.25;3.40;;;33.70;61.50;;;;;;5076242;28;20195;-86
2021/06/18 12:42:51;;;;;;;3.35;3.03;;;33.70;65.80;;;;;;5075142;28;20243;-87
2021/06/18 12:45:31;;;;;;;7.53;3.22;;;33.80;65.40;;;;;;5076412;28;20176;-87
2021/06/18 12:48:17;;;;;;;4.32;3.20;;;33.80;67.80;;;;;;5068112;28;20232;-87
2021/06/18 12:50:43;;;;;;;5.32;3.28;;;33.80;66.30;;;;;;5055444;28;20192;-86
2021/06/18 12:53:15;;;;;;;4.97;3.20;;;33.90;65.90;;;;;;5055543;28;20709;-86
2021/06/18 12:55:52;;;;;;;3.60;3.30;;;34.00;66.30;;;;;;5073922;28;20161;-86
2021/06/18 12:58:22;;;;;;;5.18;3.28;;;34.00;66.50;;;;;;5055918;28;20208;-86
2021/06/18 13:00:55;;;;;;;5.05;3.40;;;33.90;61.00;;;;;;5056827;28;20669;-87